Time;durP1;ratioP1;P1;durP2;ratioP2;P2;SDS_P1;SDS_P2;PMS_P1;PMS_P2;Temp;Humidity;BMP_temperature;BMP_pressure;BME280_temperature;BME280_humidity;BME280_pressure;Samples;Min_cycle;Max_cycle;Signal;HPM_P1;HPM_P2
2021/12/03 00:01:22;;;;;;;10.88;6.82;;;-0.50;99.90;;;;;;5089684;28;20128;-59
2021/12/03 00:03:48;;;;;;;15.10;7.13;;;-0.50;99.90;;;;;;5085967;28;20044;-58
2021/12/03 00:06:15;;;;;;;12.65;7.60;;;-0.60;99.90;;;;;;5084177;28;20058;-59
2021/12/03 00:08:41;;;;;;;12.88;7.88;;;-0.50;99.90;;;;;;5087509;28;20123;-59
2021/12/03 00:11:09;;;;;;;15.63;8.45;;;-0.60;99.90;;;;;;5103911;28;20040;-59
2021/12/03 00:13:36;;;;;;;16.25;9.40;;;-0.60;99.90;;;;;;5082916;28;20051;-59
2021/12/03 00:16:03;;;;;;;15.90;10.07;;;-0.60;99.90;;;;;;5089040;28;20051;-58
2021/12/03 00:18:30;;;;;;;16.85;10.98;;;-0.60;99.90;;;;;;5088531;28;20047;-58
2021/12/03 00:20:57;;;;;;;19.95;11.95;;;-0.60;99.90;;;;;;5082927;28;20036;-58
2021/12/03 00:23:28;;;;;;;24.67;13.75;;;-0.60;99.90;;;;;;5090569;28;20036;-59
2021/12/03 00:25:59;;;;;;;21.67;14.52;;;-0.60;99.90;;;;;;5087027;28;20051;-59
2021/12/03 00:28:25;;;;;;;28.17;15.60;;;-0.60;99.90;;;;;;5088293;28;20493;-58
2021/12/03 00:30:51;;;;;;;23.58;15.13;;;-0.60;99.90;;;;;;5086764;28;20028;-58
2021/12/03 00:33:16;;;;;;;29.85;17.80;;;-0.60;99.90;;;;;;5094974;28;20051;-59
2021/12/03 00:35:42;;;;;;;30.80;19.02;;;-0.60;99.90;;;;;;5082732;28;20376;-59
2021/12/03 00:38:08;;;;;;;30.65;18.45;;;-0.60;99.90;;;;;;5093757;28;20044;-58
2021/12/03 00:40:38;;;;;;;27.52;18.17;;;-0.60;99.90;;;;;;5091889;28;20071;-59
2021/12/03 00:43:08;;;;;;;31.58;20.85;;;-0.60;99.90;;;;;;5088371;28;20129;-59
2021/12/03 00:45:35;;;;;;;35.15;19.95;;;-0.60;99.90;;;;;;5092762;28;20394;-58
2021/12/03 00:48:01;;;;;;;36.53;21.20;;;-0.60;99.90;;;;;;5094127;28;20437;-58
2021/12/03 00:50:29;;;;;;;36.28;19.88;;;-0.60;99.90;;;;;;5089685;28;20097;-58
2021/12/03 00:52:56;;;;;;;34.42;21.05;;;-0.60;99.90;;;;;;5075492;28;20077;-59
2021/12/03 00:55:23;;;;;;;36.40;23.23;;;-0.60;99.90;;;;;;5088921;28;20035;-58
2021/12/03 00:57:49;;;;;;;37.90;21.95;;;-0.60;99.90;;;;;;5092940;28;20032;-59
2021/12/03 01:00:19;;;;;;;32.17;21.50;;;-0.60;99.90;;;;;;5088562;28;20070;-59
2021/12/03 01:02:45;;;;;;;34.83;23.48;;;-0.60;99.90;;;;;;5094205;28;20047;-58
2021/12/03 01:05:10;;;;;;;35.55;22.90;;;-0.60;99.90;;;;;;5091729;28;20036;-59
2021/12/03 01:07:36;;;;;;;36.85;24.10;;;-0.60;99.90;;;;;;5090672;28;20093;-58
2021/12/03 01:10:03;;;;;;;38.05;24.33;;;-0.60;99.90;;;;;;5093736;28;20067;-59
2021/12/03 01:12:29;;;;;;;40.05;23.92;;;-0.60;99.90;;;;;;5092111;28;20123;-59
2021/12/03 01:14:55;;;;;;;38.28;24.27;;;-0.60;99.90;;;;;;5093462;28;20467;-59
2021/12/03 01:17:22;;;;;;;37.70;24.42;;;-0.60;99.90;;;;;;5093297;28;20036;-59
2021/12/03 01:19:48;;;;;;;45.80;24.95;;;-0.60;99.90;;;;;;5087143;28;20039;-59
2021/12/03 01:22:14;;;;;;;36.95;25.20;;;-0.60;99.90;;;;;;5091153;28;20054;-59
2021/12/03 01:24:39;;;;;;;39.72;26.20;;;-0.50;99.90;;;;;;5091025;28;20043;-59
2021/12/03 01:27:06;;;;;;;39.35;24.20;;;-0.50;99.90;;;;;;5090311;28;20480;-58
2021/12/03 01:29:31;;;;;;;37.47;23.50;;;-0.50;99.90;;;;;;5088347;28;20044;-58
2021/12/03 01:31:57;;;;;;;37.70;25.05;;;-0.50;99.90;;;;;;5091115;28;20047;-59
2021/12/03 01:34:23;;;;;;;42.05;26.33;;;-0.50;99.90;;;;;;5091566;28;20079;-59
2021/12/03 01:36:49;;;;;;;37.55;26.15;;;-0.50;99.90;;;;;;5090906;28;20187;-58
2021/12/03 01:39:15;;;;;;;43.15;26.45;;;-0.50;99.90;;;;;;5089040;28;20032;-59
2021/12/03 01:41:41;;;;;;;47.63;29.33;;;-0.40;99.90;;;;;;5092532;28;20057;-58
2021/12/03 01:44:08;;;;;;;44.30;27.67;;;-0.40;99.90;;;;;;5089844;28;20082;-60
2021/12/03 01:46:34;;;;;;;45.67;28.60;;;-0.20;99.90;;;;;;5092968;28;20054;-58
2021/12/03 01:49:02;;;;;;;47.15;29.80;;;-0.40;99.90;;;;;;5072335;28;20446;-59
2021/12/03 01:51:28;;;;;;;42.40;27.20;;;-0.40;99.90;;;;;;5092760;28;20403;-59
2021/12/03 01:53:54;;;;;;;44.17;29.10;;;-0.40;99.90;;;;;;5090549;28;20040;-58
2021/12/03 01:56:20;;;;;;;44.47;25.77;;;-0.30;99.90;;;;;;5089574;28;20459;-59
2021/12/03 01:58:48;;;;;;;44.10;28.42;;;-0.30;99.90;;;;;;5089626;28;20025;-59
2021/12/03 02:01:18;;;;;;;41.97;28.00;;;-0.30;99.90;;;;;;5085143;28;20044;-59
2021/12/03 02:03:49;;;;;;;48.05;29.85;;;-0.30;99.90;;;;;;5092053;28;20105;-58
2021/12/03 02:06:16;;;;;;;44.45;28.83;;;-0.30;99.90;;;;;;5088765;28;20036;-59
2021/12/03 02:08:42;;;;;;;45.95;29.25;;;-0.30;99.90;;;;;;5088150;28;20388;-59
2021/12/03 02:11:10;;;;;;;45.63;29.92;;;-0.30;99.90;;;;;;5091612;28;20028;-58
2021/12/03 02:13:37;;;;;;;43.20;28.30;;;-0.30;99.90;;;;;;5085087;28;20032;-59
2021/12/03 02:16:04;;;;;;;44.97;29.83;;;-0.20;99.90;;;;;;5091867;28;20539;-59
2021/12/03 02:18:30;;;;;;;45.92;30.83;;;-0.20;99.90;;;;;;5089827;28;20439;-59
2021/12/03 02:20:58;;;;;;;46.47;30.52;;;-0.20;99.90;;;;;;5092314;28;20040;-58
2021/12/03 02:23:25;;;;;;;51.70;32.85;;;-0.20;99.90;;;;;;5085487;28;20039;-59
2021/12/03 02:25:51;;;;;;;48.55;30.08;;;-0.20;99.90;;;;;;5092051;28;20040;-59
2021/12/03 02:28:18;;;;;;;43.25;29.77;;;-0.20;99.90;;;;;;5073265;28;20502;-59
2021/12/03 02:30:44;;;;;;;45.83;30.23;;;-0.10;99.90;;;;;;5090224;28;20032;-59
2021/12/03 02:33:10;;;;;;;43.03;29.13;;;-0.10;99.90;;;;;;5090132;28;20403;-59
2021/12/03 02:35:40;;;;;;;41.50;28.23;;;-0.10;99.90;;;;;;5091720;28;20036;-59
2021/12/03 02:38:06;;;;;;;45.50;29.83;;;-0.10;99.90;;;;;;5084861;28;20459;-58
2021/12/03 02:40:33;;;;;;;43.97;28.98;;;-0.10;99.90;;;;;;5091517;28;20036;-59
2021/12/03 02:42:58;;;;;;;45.17;31.23;;;-0.10;99.90;;;;;;5090092;28;20076;-58
2021/12/03 02:45:24;;;;;;;46.35;30.67;;;-0.10;99.90;;;;;;5090362;28;20507;-59
2021/12/03 02:47:50;;;;;;;41.47;29.40;;;-0.10;99.90;;;;;;5091531;28;20048;-59
2021/12/03 02:50:18;;;;;;;44.22;28.35;;;-0.10;99.90;;;;;;5089020;28;20139;-59
2021/12/03 02:52:46;;;;;;;46.08;31.10;;;-0.10;99.90;;;;;;5085218;28;20075;-59
2021/12/03 02:55:13;;;;;;;45.67;28.23;;;-0.10;99.90;;;;;;5087617;28;20039;-59
2021/12/03 02:57:38;;;;;;;44.13;29.00;;;-0.10;99.90;;;;;;5091423;28;20064;-58
2021/12/03 03:00:08;;;;;;;45.63;29.20;;;-0.10;99.90;;;;;;5081588;28;20466;-58
2021/12/03 03:02:33;;;;;;;47.92;28.85;;;-0.10;99.90;;;;;;5091231;28;20040;-59
2021/12/03 03:04:59;;;;;;;47.95;29.73;;;-0.10;99.90;;;;;;5070227;28;20044;-59
2021/12/03 03:07:25;;;;;;;47.40;30.77;;;-0.10;99.90;;;;;;5085586;28;20091;-58
2021/12/03 03:09:50;;;;;;;51.22;30.10;;;-0.10;99.90;;;;;;5084799;28;20039;-58
2021/12/03 03:12:16;;;;;;;44.55;29.90;;;-0.10;99.90;;;;;;5088673;28;20492;-58
2021/12/03 03:15:01;;;;;;;49.47;29.75;;;-0.10;99.90;;;;;;5084299;28;20051;-58
2021/12/03 03:17:29;;;;;;;44.92;29.38;;;-0.10;99.90;;;;;;5091171;28;20032;-58
2021/12/03 03:19:57;;;;;;;45.08;27.38;;;-0.10;99.90;;;;;;5089093;28;20036;-58
2021/12/03 03:22:23;;;;;;;50.92;31.23;;;-0.10;99.90;;;;;;5088567;28;20036;-59
2021/12/03 03:24:50;;;;;;;47.30;30.83;;;-0.10;99.90;;;;;;5088490;28;20036;-59
2021/12/03 03:27:18;;;;;;;44.28;30.90;;;-0.10;99.90;;;;;;5090395;28;20036;-59
2021/12/03 03:29:44;;;;;;;50.10;32.88;;;-0.10;99.90;;;;;;5065189;28;20123;-59
2021/12/03 03:32:11;;;;;;;47.33;30.67;;;-0.10;99.90;;;;;;5090371;28;20544;-58
2021/12/03 03:34:37;;;;;;;52.35;32.53;;;-0.10;99.90;;;;;;5090505;28;20089;-59
2021/12/03 03:37:03;;;;;;;47.55;31.85;;;-0.10;99.90;;;;;;5081124;28;20041;-58
2021/12/03 03:39:29;;;;;;;46.55;31.52;;;0.30;99.90;;;;;;5090445;28;20107;-58
2021/12/03 03:41:55;;;;;;;47.25;31.77;;;-0.10;99.90;;;;;;5082006;28;20135;-58
2021/12/03 03:44:21;;;;;;;49.50;32.22;;;-0.10;99.90;;;;;;5088729;28;20047;-58
2021/12/03 03:46:49;;;;;;;52.60;33.22;;;-0.10;99.90;;;;;;5086397;28;20040;-58
2021/12/03 03:49:15;;;;;;;49.83;31.85;;;0.00;99.90;;;;;;5090480;28;20047;-58
2021/12/03 03:51:41;;;;;;;53.53;34.13;;;-0.10;99.90;;;;;;5083527;28;20040;-59
2021/12/03 03:54:07;;;;;;;47.75;32.67;;;-0.10;99.90;;;;;;5089333;28;20080;-58
2021/12/03 03:56:33;;;;;;;49.95;33.08;;;0.00;99.90;;;;;;5084553;28;20162;-59
2021/12/03 03:58:59;;;;;;;50.15;32.53;;;0.00;99.90;;;;;;5090505;28;20043;-59
2021/12/03 04:01:25;;;;;;;50.50;32.35;;;0.00;99.90;;;;;;5088639;28;20387;-59
2021/12/03 04:03:50;;;;;;;52.10;31.90;;;0.00;99.90;;;;;;5089936;28;20047;-58
2021/12/03 04:06:17;;;;;;;47.75;31.48;;;0.00;99.90;;;;;;5088910;28;20032;-58
2021/12/03 04:08:44;;;;;;;41.67;30.13;;;0.00;99.90;;;;;;5088081;28;20040;-59
2021/12/03 04:11:10;;;;;;;47.80;30.88;;;0.00;99.90;;;;;;5094301;28;20063;-58
2021/12/03 04:13:36;;;;;;;55.03;31.45;;;0.00;99.90;;;;;;5089218;28;20521;-58
2021/12/03 04:16:03;;;;;;;50.50;30.58;;;0.00;99.90;;;;;;5094625;28;20044;-59
2021/12/03 04:18:29;;;;;;;46.78;30.15;;;0.00;99.90;;;;;;5092071;28;20114;-58
2021/12/03 04:20:55;;;;;;;51.17;31.52;;;0.00;99.90;;;;;;5093697;28;20118;-59
2021/12/03 04:23:21;;;;;;;48.85;29.55;;;0.00;99.90;;;;;;5069881;28;20036;-59
2021/12/03 04:25:48;;;;;;;49.30;29.55;;;0.10;99.90;;;;;;5089881;28;20062;-58
2021/12/03 04:28:16;;;;;;;48.70;30.45;;;0.10;99.90;;;;;;5083290;28;20036;-59
2021/12/03 04:30:42;;;;;;;46.00;28.45;;;0.10;99.90;;;;;;5088173;28;20043;-59
2021/12/03 04:33:08;;;;;;;42.90;27.52;;;0.10;99.90;;;;;;5091112;28;20036;-58
2021/12/03 04:35:35;;;;;;;48.25;27.80;;;0.10;99.90;;;;;;5092513;28;20131;-59
2021/12/03 04:38:01;;;;;;;44.67;26.10;;;0.10;99.90;;;;;;5092400;28;20043;-59
2021/12/03 04:40:28;;;;;;;37.30;24.58;;;0.10;99.90;;;;;;5091152;28;20032;-59
2021/12/03 04:42:54;;;;;;;42.20;25.60;;;0.20;99.90;;;;;;5087394;28;20036;-58
2021/12/03 04:45:23;;;;;;;41.38;25.40;;;0.20;99.90;;;;;;5090363;28;20404;-59
2021/12/03 04:47:50;;;;;;;38.65;23.27;;;0.20;99.90;;;;;;5093578;28;20082;-58
2021/12/03 04:50:18;;;;;;;38.17;23.02;;;0.20;99.90;;;;;;5089315;28;20550;-59
2021/12/03 04:52:44;;;;;;;41.85;24.42;;;0.20;99.90;;;;;;5090391;28;20558;-59
2021/12/03 04:55:10;;;;;;;41.05;23.50;;;0.20;99.90;;;;;;5091717;28;20134;-59
2021/12/03 04:57:37;;;;;;;41.40;22.85;;;0.30;99.90;;;;;;5092387;28;20079;-59
2021/12/03 05:00:10;;;;;;;36.38;22.77;;;0.30;99.90;;;;;;5085032;28;20033;-59
2021/12/03 05:02:35;;;;;;;33.25;22.58;;;0.30;99.90;;;;;;5093354;28;20043;-59
2021/12/03 05:05:04;;;;;;;36.70;22.65;;;0.40;99.90;;;;;;5090922;28;20065;-59
2021/12/03 05:09:56;;;;;;;37.40;21.98;;;0.50;99.90;;;;;;5089278;28;20404;-59
2021/12/03 05:12:22;;;;;;;31.92;19.48;;;0.50;99.90;;;;;;5089033;28;20494;-59
2021/12/03 05:14:48;;;;;;;34.58;19.52;;;0.50;99.90;;;;;;5093846;28;20424;-59
2021/12/03 05:17:14;;;;;;;36.67;18.95;;;0.50;99.90;;;;;;5089012;28;20056;-58
2021/12/03 05:19:39;;;;;;;30.40;19.60;;;0.60;99.90;;;;;;5093431;28;20499;-58
2021/12/03 05:22:05;;;;;;;31.05;19.23;;;0.60;99.90;;;;;;5086597;28;20072;-59
2021/12/03 05:24:31;;;;;;;31.40;17.80;;;0.60;99.90;;;;;;5092325;28;20032;-59
2021/12/03 05:26:57;;;;;;;31.80;16.60;;;0.60;99.90;;;;;;5089272;28;20032;-59
2021/12/03 05:29:23;;;;;;;28.40;16.27;;;0.60;99.90;;;;;;5092325;28;20062;-59
2021/12/03 05:31:49;;;;;;;28.38;16.40;;;0.60;99.90;;;;;;5084659;28;20387;-59
2021/12/03 05:34:16;;;;;;;26.27;15.00;;;0.70;99.90;;;;;;5092584;28;20117;-58
2021/12/03 05:36:43;;;;;;;27.92;15.50;;;0.70;99.90;;;;;;5090630;28;20100;-58
2021/12/03 05:39:09;;;;;;;29.30;15.32;;;0.70;99.90;;;;;;5085477;28;20503;-59
2021/12/03 05:41:35;;;;;;;27.40;14.57;;;0.70;99.90;;;;;;5088109;28;20096;-59
2021/12/03 05:44:03;;;;;;;26.10;14.13;;;0.70;99.90;;;;;;5085232;28;20044;-58
2021/12/03 05:46:28;;;;;;;30.13;15.25;;;0.70;99.90;;;;;;5087875;28;20055;-58
2021/12/03 05:48:54;;;;;;;26.40;13.35;;;0.70;99.90;;;;;;5092870;28;20039;-59
2021/12/03 05:51:20;;;;;;;25.80;14.05;;;0.70;99.90;;;;;;5092096;28;20554;-58
2021/12/03 05:53:46;;;;;;;26.70;14.48;;;0.80;99.90;;;;;;5086781;28;20028;-59
2021/12/03 05:56:11;;;;;;;31.17;15.18;;;0.80;99.90;;;;;;5091472;28;20511;-58
2021/12/03 05:58:37;;;;;;;22.48;13.18;;;0.80;99.90;;;;;;5090137;28;20024;-59
2021/12/03 06:01:04;;;;;;;27.08;13.80;;;0.80;99.90;;;;;;5085646;28;20048;-59
2021/12/03 06:03:30;;;;;;;25.67;13.63;;;0.80;99.90;;;;;;5090467;28;20165;-59
2021/12/03 06:05:55;;;;;;;26.40;13.95;;;0.90;99.90;;;;;;5085436;28;20047;-59
2021/12/03 06:08:21;;;;;;;24.30;14.00;;;0.90;99.90;;;;;;5080905;28;20522;-59
2021/12/03 06:10:48;;;;;;;27.33;13.77;;;0.90;99.90;;;;;;5091890;28;20086;-58
2021/12/03 06:13:13;;;;;;;29.45;14.70;;;0.90;99.90;;;;;;5083967;28;20112;-59
2021/12/03 06:15:39;;;;;;;29.60;14.52;;;0.90;99.90;;;;;;5092150;28;20451;-58
2021/12/03 06:18:05;;;;;;;29.27;15.98;;;0.90;99.90;;;;;;5089525;28;20044;-58
2021/12/03 06:20:31;;;;;;;26.88;14.13;;;0.90;99.90;;;;;;5088390;28;20059;-58
2021/12/03 06:22:57;;;;;;;26.88;14.70;;;1.00;99.90;;;;;;5090374;28;20054;-58
2021/12/03 06:25:23;;;;;;;27.48;15.00;;;1.00;99.90;;;;;;5089670;28;20035;-59
2021/12/03 06:27:49;;;;;;;29.48;15.15;;;1.00;99.90;;;;;;5090407;28;20036;-58
2021/12/03 06:30:18;;;;;;;32.25;16.55;;;1.00;99.90;;;;;;5087054;28;20050;-59
2021/12/03 06:32:44;;;;;;;35.88;16.83;;;1.00;99.90;;;;;;5091618;28;20161;-58
2021/12/03 06:35:12;;;;;;;29.90;17.35;;;1.00;99.90;;;;;;5086426;28;20575;-58
2021/12/03 06:37:39;;;;;;;34.75;16.75;;;1.00;99.90;;;;;;5087386;28;20044;-58
2021/12/03 06:40:09;;;;;;;33.63;17.60;;;1.00;99.90;;;;;;5090801;28;20032;-58
2021/12/03 06:42:34;;;;;;;37.00;18.20;;;1.00;99.90;;;;;;5083558;28;20055;-59
2021/12/03 06:45:03;;;;;;;34.88;18.25;;;1.00;99.90;;;;;;5088828;28;20487;-59
2021/12/03 06:47:29;;;;;;;40.83;19.08;;;1.00;99.90;;;;;;5091308;28;20040;-59
2021/12/03 06:49:54;;;;;;;40.10;18.05;;;1.00;99.90;;;;;;5088912;28;20094;-59
2021/12/03 06:52:20;;;;;;;37.10;18.88;;;1.00;99.90;;;;;;5090294;28;20038;-58
2021/12/03 06:54:54;;;;;;;37.15;18.00;;;1.10;99.90;;;;;;5083775;28;20040;-58
2021/12/03 06:57:20;;;;;;;35.25;16.88;;;1.10;99.90;;;;;;5088844;28;20038;-58
2021/12/03 06:59:46;;;;;;;35.00;17.27;;;1.10;99.90;;;;;;5089997;28;20458;-58
2021/12/03 07:02:13;;;;;;;34.70;15.98;;;1.10;99.90;;;;;;5091422;28;20069;-58
2021/12/03 07:04:39;;;;;;;40.47;17.50;;;1.10;99.90;;;;;;5089705;28;20039;-58
2021/12/03 07:07:05;;;;;;;35.72;15.55;;;1.20;99.90;;;;;;5089242;28;20048;-58
2021/12/03 07:09:31;;;;;;;32.42;14.63;;;1.20;99.90;;;;;;5087458;28;20121;-59
2021/12/03 07:11:56;;;;;;;28.35;12.90;;;1.30;99.90;;;;;;5089886;28;20100;-58
2021/12/03 07:14:22;;;;;;;27.95;12.55;;;1.40;99.90;;;;;;5091217;28;20081;-58
2021/12/03 07:16:48;;;;;;;27.38;13.00;;;1.40;99.90;;;;;;5086380;28;20418;-58
2021/12/03 07:19:14;;;;;;;26.88;11.90;;;1.40;99.90;;;;;;5089990;28;20391;-58
2021/12/03 07:21:40;;;;;;;23.52;10.93;;;1.50;99.90;;;;;;5089248;28;20028;-58
2021/12/03 07:24:06;;;;;;;26.60;11.98;;;1.50;99.90;;;;;;5089702;28;20051;-59
2021/12/03 07:26:32;;;;;;;28.42;13.65;;;1.50;99.90;;;;;;5086052;28;20360;-59
2021/12/03 07:28:57;;;;;;;33.15;15.95;;;0.60;99.90;;;;;;5091221;28;20031;-58
2021/12/03 07:31:23;;;;;;;32.67;17.17;;;1.60;99.90;;;;;;5082117;28;20971;-58
2021/12/03 07:33:50;;;;;;;35.83;17.55;;;1.60;99.90;;;;;;5090446;28;20036;-58
2021/12/03 07:36:16;;;;;;;36.42;17.50;;;1.70;99.90;;;;;;5087590;28;20574;-58
2021/12/03 07:38:41;;;;;;;41.65;19.85;;;1.70;99.90;;;;;;5077334;28;20174;-58
2021/12/03 07:41:07;;;;;;;48.53;21.73;;;1.80;99.90;;;;;;5089647;28;20140;-59
2021/12/03 07:43:33;;;;;;;46.50;23.15;;;1.80;99.90;;;;;;5086176;28;20040;-58
2021/12/03 07:46:00;;;;;;;48.92;23.05;;;1.80;99.90;;;;;;5082057;28;20040;-59
2021/12/03 07:48:25;;;;;;;49.85;24.35;;;1.80;99.90;;;;;;5088121;28;20040;-58
2021/12/03 07:50:53;;;;;;;45.85;25.92;;;1.80;99.90;;;;;;5082704;28;20036;-58
2021/12/03 07:53:19;;;;;;;53.47;26.23;;;1.90;99.90;;;;;;5078372;28;20032;-59
2021/12/03 07:55:47;;;;;;;47.83;24.35;;;1.90;99.90;;;;;;5086746;28;20071;-57
2021/12/03 07:58:12;;;;;;;50.13;25.05;;;1.90;99.90;;;;;;5080467;28;20543;-59
2021/12/03 08:00:38;;;;;;;45.35;23.95;;;1.90;99.90;;;;;;5088596;28;20119;-58
2021/12/03 08:03:04;;;;;;;49.58;24.83;;;1.90;99.90;;;;;;5080942;28;20073;-58
2021/12/03 08:05:30;;;;;;;46.38;25.17;;;1.90;99.90;;;;;;5081567;28;20477;-59
2021/12/03 08:07:58;;;;;;;53.50;27.23;;;2.00;99.90;;;;;;5075675;28;20111;-58
2021/12/03 08:10:25;;;;;;;48.47;26.00;;;2.00;99.90;;;;;;5082723;28;20040;-59
2021/12/03 08:12:51;;;;;;;52.15;26.60;;;2.00;99.90;;;;;;5078194;28;20036;-59
2021/12/03 08:15:17;;;;;;;45.70;24.90;;;2.00;99.90;;;;;;5081999;28;20048;-59
2021/12/03 08:17:47;;;;;;;52.70;25.52;;;2.00;99.90;;;;;;5080095;28;20040;-59
2021/12/03 08:20:13;;;;;;;52.78;25.77;;;2.00;99.90;;;;;;5082072;28;20126;-59
2021/12/03 08:22:39;;;;;;;50.25;26.63;;;2.00;99.90;;;;;;5077398;28;20479;-58
2021/12/03 08:25:05;;;;;;;49.97;26.75;;;2.00;99.90;;;;;;5082454;28;20503;-59
2021/12/03 08:27:31;;;;;;;58.13;27.85;;;2.00;99.90;;;;;;5078479;28;20087;-58
2021/12/03 08:29:57;;;;;;;52.95;26.58;;;2.00;99.90;;;;;;5076682;28;20392;-58
2021/12/03 08:32:22;;;;;;;57.60;27.40;;;2.00;99.90;;;;;;5079305;28;20040;-58
2021/12/03 08:34:48;;;;;;;58.65;27.25;;;2.10;99.90;;;;;;5082418;28;20040;-59
2021/12/03 08:37:14;;;;;;;56.15;27.52;;;2.10;99.90;;;;;;5080209;28;20036;-59
2021/12/03 08:39:39;;;;;;;51.50;27.52;;;2.10;99.90;;;;;;5080015;28;20034;-58
2021/12/03 08:42:07;;;;;;;55.38;26.58;;;2.10;99.90;;;;;;5075830;28;20060;-59
2021/12/03 08:44:33;;;;;;;46.78;24.33;;;2.10;99.90;;;;;;5081030;28;20044;-59
2021/12/03 08:47:03;;;;;;;47.42;25.83;;;2.10;99.90;;;;;;5082376;28;20044;-58
2021/12/03 08:49:31;;;;;;;48.35;25.95;;;2.20;99.90;;;;;;5077520;28;20076;-59
2021/12/03 08:54:55;;;;;;;45.78;23.20;;;2.20;99.90;;;;;;5082199;28;20113;-59
2021/12/03 08:57:30;;;;;;;47.58;23.50;;;2.20;99.90;;;;;;5085439;28;20043;-59
2021/12/03 09:00:06;;;;;;;34.47;21.08;;;2.30;99.90;;;;;;5084628;28;20032;-60
2021/12/03 09:02:31;;;;;;;38.53;21.13;;;2.30;99.90;;;;;;5085851;28;20081;-58
2021/12/03 09:04:57;;;;;;;41.95;21.50;;;2.30;99.90;;;;;;5082300;28;20426;-59
2021/12/03 09:07:23;;;;;;;42.55;20.23;;;2.40;99.90;;;;;;5078927;28;20096;-58
2021/12/03 09:09:48;;;;;;;41.08;20.13;;;2.40;99.90;;;;;;5055492;28;20101;-59
2021/12/03 09:12:14;;;;;;;41.17;19.27;;;2.40;99.90;;;;;;5053873;28;20117;-58
2021/12/03 09:14:53;;;;;;;37.10;17.27;;;2.40;99.90;;;;;;5056560;28;20064;-59
2021/12/03 09:25:04;;;;;;;35.47;14.95;;;2.70;99.90;;;;;;5075116;28;20388;-58
2021/12/03 09:27:29;;;;;;;32.58;14.18;;;2.60;99.90;;;;;;5061815;28;20085;-59
2021/12/03 09:29:56;;;;;;;28.77;13.52;;;2.60;99.90;;;;;;5078087;28;20044;-59
2021/12/03 09:32:31;;;;;;;31.45;13.20;;;2.60;99.90;;;;;;5080462;28;20162;-59
2021/12/03 09:34:57;;;;;;;27.63;12.25;;;2.70;99.90;;;;;;5084402;28;20044;-59
2021/12/03 09:37:23;;;;;;;28.77;12.38;;;2.70;99.90;;;;;;5067693;28;20041;-59
2021/12/03 09:39:49;;;;;;;28.63;12.25;;;2.70;99.90;;;;;;5048233;28;20075;-58
2021/12/03 09:42:18;;;;;;;31.75;11.55;;;2.70;99.90;;;;;;5052819;28;20056;-59
2021/12/03 09:44:45;;;;;;;34.03;11.88;;;2.70;99.90;;;;;;5048942;28;20128;-59
2021/12/03 09:47:14;;;;;;;28.95;10.65;;;2.70;99.90;;;;;;5048872;28;21903;-59
2021/12/03 09:49:41;;;;;;;26.05;10.73;;;2.70;99.90;;;;;;5047402;28;20040;-58
2021/12/03 09:52:19;;;;;;;29.38;10.98;;;2.80;99.90;;;;;;5051241;28;20075;-59
2021/12/03 09:54:51;;;;;;;25.25;10.73;;;2.80;99.90;;;;;;5027144;28;20064;-59
2021/12/03 10:22:35;;;;;;;21.50;7.95;;;2.90;99.90;;;;;;5031350;28;20040;-59
2021/12/03 10:28:12;;;;;;;20.65;8.15;;;2.90;99.90;;;;;;5030077;28;20044;-58
2021/12/03 10:38:41;;;;;;;25.10;7.40;;;2.90;99.90;;;;;;5028019;28;20059;-60
2021/12/03 10:41:21;;;;;;;24.13;6.88;;;3.00;99.90;;;;;;5045084;28;20064;-58
2021/12/03 10:44:33;;;;;;;20.25;7.63;;;3.00;99.90;;;;;;5044348;28;20139;-59
2021/12/03 10:52:21;;;;;;;18.95;6.50;;;3.10;99.90;;;;;;5049876;28;20040;-58
2021/12/03 11:05:28;;;;;;;17.52;4.90;;;3.20;99.90;;;;;;5047622;28;20044;-58
2021/12/03 11:08:40;;;;;;;18.27;5.03;;;3.20;99.90;;;;;;5047237;28;20052;-58
2021/12/03 11:30:08;;;;;;;15.27;3.78;;;3.40;99.90;;;;;;5017013;28;20425;-59
2021/12/03 11:47:09;;;;;;;13.45;4.22;;;3.30;99.90;;;;;;5042383;28;20091;-59
2021/12/03 14:40:19;;;;;;;16.95;6.55;;;4.00;99.90;;;;;;5090668;28;20423;-61
2021/12/03 14:43:12;;;;;;;10.23;5.60;;;4.00;99.90;;;;;;5042687;28;1122277;-58
2021/12/03 14:57:19;;;;;;;11.68;5.60;;;4.00;99.90;;;;;;5085683;28;20109;-60
2021/12/03 15:00:04;;;;;;;11.88;5.57;;;4.00;99.90;;;;;;5090622;28;20044;-60
2021/12/03 15:02:58;;;;;;;12.30;6.32;;;4.00;99.90;;;;;;5086311;28;20540;-60
2021/12/03 15:08:19;;;;;;;12.60;6.68;;;4.00;99.90;;;;;;5081606;28;20055;-59
2021/12/03 15:14:24;;;;;;;13.30;6.78;;;4.00;99.90;;;;;;5082257;28;20083;-61
2021/12/03 15:27:26;;;;;;;14.18;7.78;;;4.00;99.90;;;;;;5042226;28;20122;-60
2021/12/03 15:38:18;;;;;;;11.48;7.35;;;4.00;99.90;;;;;;5026600;28;20074;-60
2021/12/03 15:40:57;;;;;;;14.13;8.35;;;4.00;99.90;;;;;;5055026;28;20040;-59
2021/12/03 16:08:31;;;;;;;16.10;10.13;;;4.00;99.90;;;;;;5043447;28;20098;-60
2021/12/03 16:19:17;;;;;;;14.90;10.23;;;4.10;99.90;;;;;;5046004;28;20109;-59
2021/12/03 16:44:01;;;;;;;16.98;12.90;;;4.10;99.90;;;;;;5085630;28;20040;-60
2021/12/03 16:46:35;;;;;;;17.35;12.57;;;4.10;99.90;;;;;;5088936;28;20155;-59
2021/12/03 16:51:34;;;;;;;17.60;12.77;;;4.10;99.90;;;;;;5088382;28;20441;-59
2021/12/03 16:54:08;;;;;;;17.17;13.15;;;4.10;99.90;;;;;;5060346;28;20658;-59
2021/12/03 16:56:36;;;;;;;18.83;14.02;;;4.10;99.90;;;;;;5054528;28;20055;-60
2021/12/03 16:59:03;;;;;;;20.25;14.10;;;4.10;99.90;;;;;;5050690;28;20416;-59
2021/12/03 17:23:24;;;;;;;22.13;16.23;;;4.20;99.90;;;;;;5050252;28;20141;-60
2021/12/03 17:47:41;;;;;;;35.63;23.42;;;4.20;99.90;;;;;;5072507;28;20130;-59
2021/12/03 18:00:11;;;;;;;37.33;22.88;;;4.10;99.90;;;;;;5080270;28;20051;-59
2021/12/03 18:02:42;;;;;;;37.78;24.40;;;4.10;99.90;;;;;;5093231;28;20048;-59
2021/12/03 18:13:14;;;;;;;41.60;25.10;;;4.10;99.90;;;;;;5090013;28;20043;-60
2021/12/03 18:55:58;;;;;;;45.15;27.15;;;4.20;99.90;;;;;;5051220;28;20401;-59
2021/12/03 18:58:26;;;;;;;39.67;25.55;;;4.20;99.90;;;;;;5049999;28;20501;-60
2021/12/03 19:00:53;;;;;;;40.35;25.75;;;4.20;99.90;;;;;;5064057;28;20416;-60
2021/12/03 19:03:39;;;;;;;41.45;25.90;;;4.20;99.90;;;;;;5052330;28;20044;-60
2021/12/03 19:06:27;;;;;;;42.10;25.95;;;4.20;99.90;;;;;;5065061;28;20059;-59
2021/12/03 19:09:01;;;;;;;44.03;26.50;;;4.20;99.90;;;;;;5053871;28;20071;-59
2021/12/03 19:12:15;;;;;;;44.30;25.77;;;4.20;99.90;;;;;;5052375;28;20510;-60
2021/12/03 19:14:20;;;;;;;42.78;25.92;;;4.30;99.90;;;;;;5051765;28;20052;-60
2021/12/03 19:16:46;;;;;;;44.33;27.45;;;4.20;99.90;;;;;;5049472;28;20097;-59
2021/12/03 19:19:14;;;;;;;45.28;26.25;;;4.20;99.90;;;;;;5053267;28;20048;-59
2021/12/03 19:21:40;;;;;;;43.38;26.15;;;4.20;99.90;;;;;;5048694;28;20036;-59
2021/12/03 19:24:07;;;;;;;43.33;26.50;;;4.20;99.90;;;;;;5049864;28;20510;-59
2021/12/03 19:26:34;;;;;;;42.03;26.02;;;4.20;99.90;;;;;;5051857;28;20040;-60
2021/12/03 19:29:03;;;;;;;45.58;27.48;;;4.20;99.90;;;;;;5049445;28;21243;-60
2021/12/03 19:31:30;;;;;;;44.88;26.80;;;4.20;99.90;;;;;;5029465;28;20067;-59
2021/12/03 19:33:57;;;;;;;48.63;27.60;;;4.20;99.90;;;;;;5048204;28;20796;-60
2021/12/03 19:36:24;;;;;;;46.95;26.48;;;4.20;99.90;;;;;;5049647;28;20052;-60
2021/12/03 19:38:52;;;;;;;46.15;27.50;;;4.10;99.90;;;;;;5047300;28;20037;-59
2021/12/03 19:44:07;;;;;;;;;;;4.10;99.90;;;;;;5048820;28;20113;-59
2021/12/03 19:46:35;;;;;;;49.80;27.85;;;4.70;99.90;;;;;;5048392;28;20010;-60
2021/12/03 19:49:13;;;;;;;49.22;27.42;;;4.10;99.90;;;;;;5050653;28;20139;-59
2021/12/03 19:51:47;;;;;;;46.67;26.20;;;4.10;99.90;;;;;;5050268;28;20078;-59
2021/12/03 19:54:14;;;;;;;53.47;28.70;;;4.10;99.90;;;;;;5046773;28;20047;-60
2021/12/03 19:56:40;;;;;;;48.22;27.30;;;4.10;99.90;;;;;;5051004;28;20058;-59
2021/12/03 19:59:07;;;;;;;50.17;27.83;;;4.10;99.90;;;;;;5049918;28;20519;-59
2021/12/03 20:01:36;;;;;;;53.10;28.27;;;4.10;99.90;;;;;;5047160;28;20511;-60
2021/12/03 20:04:07;;;;;;;48.95;28.30;;;3.30;99.90;;;;;;5047888;28;20051;-59
2021/12/03 20:06:33;;;;;;;46.63;27.05;;;4.20;99.90;;;;;;5049649;28;20036;-60
2021/12/03 20:09:02;;;;;;;54.45;27.75;;;4.20;99.90;;;;;;5046291;28;20072;-59
2021/12/03 20:11:38;;;;;;;55.95;29.08;;;3.50;99.90;;;;;;5046987;28;20123;-60
2021/12/03 20:14:06;;;;;;;53.28;29.02;;;4.10;99.90;;;;;;5049011;28;20068;-60
2021/12/03 20:16:41;;;;;;;51.88;28.20;;;4.20;99.90;;;;;;5052568;28;20507;-59
2021/12/03 20:22:37;;;;;;;51.80;28.52;;;4.20;99.90;;;;;;5049739;28;20044;-60
2021/12/03 20:25:04;;;;;;;50.92;29.42;;;4.20;99.90;;;;;;5050730;28;20586;-60
2021/12/03 20:27:41;;;;;;;52.63;27.90;;;4.10;99.90;;;;;;5050859;28;20131;-59
2021/12/03 20:38:05;;;;;;;58.75;28.27;;;4.10;99.90;;;;;;5051970;28;20661;-61
2021/12/03 20:40:33;;;;;;;53.22;27.88;;;4.10;99.90;;;;;;5054927;28;20051;-60